Drumore, PA (17518)

7:22 PM EDT on September 04, 2015 (GMT -0400)
Harmony Ridge | | Change Station
CLOSE
Current Station
Personal Weather Station
Location: Quarryville, PA
Elevation: 518 ft
Nearby Weather Stations

Elev 518 ft 39.80 °N, 76.23 °W | Updated 2 minutes ago

Mostly Cloudy
Mostly Cloudy
77.0 °F
Feels Like 79 °F
N
2.2
Wind Variable Wind from SE

Today
High -- | Low -- °F
--% Chance of Precip.
Yesterday
High -- | Low -- °F
Precip. -- in
6:35 AM 7:31 PM
Waning Gibbous, 55% visible
Pressure 30.08 in
Visibility 5.0 miles
Clouds Few 9500 ft
Heat Index 79 °F
Dew Point 71 °F
Humidity 81%
Rainfall 0.00 in
Snow Depth Not available.
UV 0 out of 12
Pollen 9.70 out of 12
Air Quality Not available.
Flu Activity Not available.
METAR KLNS 042253Z 14005KT 5SM HZ FEW095 26/21 A3009 RMK AO2 LTG DSNT N TSE18B19E38 SLP186 T02560211
Pressure 30.08 in
Visibility 5.0 miles
Clouds Few 9500 ft
Heat Index 79 °F
Dew Point 71 °F
Humidity 81%
Rainfall 0.00 in
Snow Depth Not available.
UV 0 out of 12
Pollen 9.70 out of 12
Air Quality Not available.
Flu Activity Not available.
METAR KLNS 042253Z 14005KT 5SM HZ FEW095 26/21 A3009 RMK AO2 LTG DSNT N TSE18B19E38 SLP186 T02560211

10-Day Weather Forecast

×

Almanac

Astronomy

Sep. 04, 2015 Rise Set
Actual Time
Civil Twilight
Nautical Twilight
Astronomical Twilight
Moon
Length of Visible Light
Length of Day
Tomorrow will be .
, % of the Moon is Illuminated

Today's Extremes

State Highs State Lows

Community

WunderPhotos

Upload Photos

1,852,332 photos uploaded!

WunderBlogs® & News

Nearby

Air Quality

  Air Quality AQ Index Pollutant
Not available.

Snow Depth

Station Depth Elevation

Earthquake Activity

City Distance Mag. Time & Date
Minimum magnitude displayed is 2.5.

Coastal Water Temperatures

Place Temperature

Stations

Nearby Weather Stations

Station Location Temp. Windchill Dew Point Humidity Wind Precip. Elev Updated Type